createdAt,value
2018-12-22T00:00:00.866Z,67.92
2018-12-22T00:01:00.889Z,68.09
2018-12-22T00:02:00.981Z,68.30
2018-12-22T00:03:00.970Z,67.99
2018-12-22T00:04:00.904Z,68.53
2018-12-22T00:05:00.835Z,68.23
2018-12-22T00:06:00.798Z,68.12
2018-12-22T00:07:00.788Z,68.23
2018-12-22T00:08:00.794Z,68.43
2018-12-22T00:09:00.779Z,68.53
2018-12-22T00:10:00.756Z,68.63
2018-12-22T00:11:00.780Z,68.53
2018-12-22T00:12:00.767Z,68.74
2018-12-22T00:13:00.748Z,68.94
2018-12-22T00:14:00.742Z,69.65
2018-12-22T00:15:00.705Z,69.45
2018-12-22T00:16:00.689Z,69.04
2018-12-22T00:17:00.685Z,68.91
2018-12-22T00:18:00.735Z,68.91
2018-12-22T00:19:00.657Z,69.04
2018-12-22T00:20:00.670Z,69.73
2018-12-22T00:21:00.628Z,68.63
2018-12-22T00:22:00.625Z,68.74
2018-12-22T00:23:00.616Z,69.04
2018-12-22T00:24:00.763Z,68.53
2018-12-22T00:25:00.613Z,68.74
2018-12-22T00:26:00.663Z,68.33
2018-12-22T00:27:00.624Z,69.04
2018-12-22T00:28:00.757Z,69.15
2018-12-22T00:29:00.782Z,68.84
2018-12-22T00:30:00.715Z,69.65
2018-12-22T00:31:00.901Z,68.74
2018-12-22T00:32:00.506Z,68.94
2018-12-22T00:33:00.587Z,68.91
2018-12-22T00:34:00.511Z,68.94
2018-12-22T00:35:00.474Z,68.94
2018-12-22T00:36:00.474Z,69.65
2018-12-22T00:37:00.451Z,69.76
2018-12-22T00:38:01.019Z,68.63
2018-12-22T00:39:00.446Z,68.63
2018-12-22T00:40:00.442Z,69.11
2018-12-22T00:41:00.424Z,68.43
2018-12-22T00:42:00.397Z,68.53
2018-12-22T00:43:00.387Z,68.53
2018-12-22T00:44:00.408Z,68.53
2018-12-22T00:45:00.374Z,68.74
2018-12-22T00:46:00.374Z,68.63
2018-12-22T00:47:00.337Z,69.15
2018-12-22T00:48:00.335Z,68.74
2018-12-22T00:49:00.355Z,68.60
2018-12-22T00:50:00.307Z,68.63
2018-12-22T00:51:00.315Z,67.89
2018-12-22T00:52:00.287Z,68.70
2018-12-22T00:53:00.271Z,68.94
2018-12-22T00:54:00.283Z,68.60
2018-12-22T00:55:00.258Z,69.04
2018-12-22T00:56:00.238Z,68.50
2018-12-22T00:57:00.232Z,68.23
2018-12-22T00:58:00.215Z,69.45
2018-12-22T00:59:00.232Z,69.76
2018-12-22T01:00:00.193Z,69.52
2018-12-22T01:01:00.210Z,68.63
2018-12-22T01:02:00.188Z,68.50
2018-12-22T01:03:00.162Z,69.15
2018-12-22T01:04:00.199Z,68.74
2018-12-22T01:05:00.137Z,68.43
2018-12-22T01:06:00.138Z,68.43
2018-12-22T01:07:00.121Z,68.53
2018-12-22T01:08:00.116Z,68.63
2018-12-22T01:09:00.132Z,69.15
2018-12-22T01:10:00.105Z,69.04
2018-12-22T01:11:00.069Z,68.60
2018-12-22T01:12:00.059Z,68.60
2018-12-22T01:13:00.051Z,69.01
2018-12-22T01:14:00.054Z,68.63
2018-12-22T01:15:00.028Z,69.86
2018-12-22T01:16:00.013Z,69.04
2018-12-22T01:17:00.013Z,68.94
2018-12-22T01:17:59.991Z,69.04
2018-12-22T01:19:00.019Z,68.94
2018-12-22T01:19:59.976Z,69.04
2018-12-22T01:20:59.961Z,69.45
2018-12-22T01:21:59.969Z,69.35
2018-12-22T01:22:59.943Z,69.24
2018-12-22T01:23:59.967Z,69.65
2018-12-22T01:24:59.911Z,69.76
2018-12-22T01:25:59.908Z,69.24
2018-12-22T01:26:59.904Z,69.24
2018-12-22T01:27:59.879Z,69.35
2018-12-22T01:28:59.889Z,69.24
2018-12-22T01:29:59.870Z,69.24
2018-12-22T01:30:59.852Z,70.06
2018-12-22T01:31:59.849Z,69.56
2018-12-22T01:32:59.833Z,69.35
2018-12-22T01:33:59.828Z,69.35
2018-12-22T01:34:59.810Z,68.94
2018-12-22T01:35:59.786Z,68.60
2018-12-22T01:36:59.780Z,69.24
2018-12-22T01:37:59.776Z,69.04
2018-12-22T01:38:59.792Z,68.84
2018-12-22T01:39:59.744Z,69.15
2018-12-22T01:40:59.735Z,69.04
2018-12-22T01:41:59.730Z,69.24
2018-12-22T01:42:59.723Z,69.15
2018-12-22T01:43:59.715Z,69.24
2018-12-22T01:44:59.685Z,70.06
2018-12-22T01:45:59.680Z,69.76
2018-12-22T01:46:59.666Z,69.04
2018-12-22T01:47:59.653Z,69.35
2018-12-22T01:48:59.701Z,69.04
2018-12-22T01:49:59.649Z,69.24
2018-12-22T01:50:59.629Z,69.56
2018-12-22T01:51:59.626Z,69.65
2018-12-22T01:52:59.595Z,69.35
2018-12-22T01:53:59.611Z,69.56
2018-12-22T01:54:59.579Z,69.35
2018-12-22T01:55:59.570Z,68.94
2018-12-22T01:56:59.561Z,69.15
2018-12-22T01:57:59.541Z,69.65
2018-12-22T01:58:59.555Z,69.35
2018-12-22T01:59:59.518Z,70.06
2018-12-22T02:00:59.529Z,69.65
2018-12-22T02:01:59.495Z,69.96
2018-12-22T02:02:59.493Z,69.65
2018-12-22T02:03:59.506Z,69.76
2018-12-22T02:04:59.485Z,69.86
2018-12-22T02:05:59.455Z,70.00
2018-12-22T02:06:59.460Z,69.86
2018-12-22T02:07:59.433Z,69.56
2018-12-22T02:08:59.426Z,70.06
2018-12-22T02:09:59.433Z,70.27
2018-12-22T02:10:59.421Z,70.17
2018-12-22T02:11:59.387Z,70.27
2018-12-22T02:12:59.386Z,70.47
2018-12-22T02:13:59.384Z,70.40
2018-12-22T02:14:59.365Z,70.68
2018-12-22T02:15:59.337Z,70.61
2018-12-22T02:16:59.326Z,70.78
2018-12-22T02:17:59.315Z,70.61
2018-12-22T02:18:59.330Z,70.71
2018-12-22T02:19:59.314Z,70.57
2018-12-22T02:20:59.291Z,70.40
2018-12-22T02:21:59.287Z,70.57
2018-12-22T02:22:59.271Z,70.20
2018-12-22T02:23:59.270Z,70.20
2018-12-22T02:24:59.279Z,70.71
2018-12-22T02:25:59.277Z,70.27
2018-12-22T02:26:59.211Z,70.40
2018-12-22T02:27:59.201Z,70.17
2018-12-22T02:28:59.262Z,70.47
2018-12-22T02:29:59.237Z,70.27
2018-12-22T02:30:59.168Z,70.20
2018-12-22T02:31:59.157Z,69.96
2018-12-22T02:32:59.145Z,69.65
2018-12-22T02:33:59.135Z,69.35
2018-12-22T02:34:59.148Z,69.76
2018-12-22T02:35:59.118Z,69.65
2018-12-22T02:36:59.103Z,69.76
2018-12-22T02:37:59.109Z,69.56
2018-12-22T02:38:59.080Z,69.86
2018-12-22T02:39:59.101Z,69.56
2018-12-22T02:40:59.059Z,69.45
2018-12-22T02:41:59.064Z,69.56
2018-12-22T02:42:59.034Z,69.24
2018-12-22T02:43:59.020Z,69.35
2018-12-22T02:44:59.036Z,69.45
2018-12-22T02:45:59.001Z,69.96
2018-12-22T02:46:59.003Z,69.96
2018-12-22T02:47:58.990Z,69.35
2018-12-22T02:48:58.968Z,69.65
2018-12-22T02:49:58.979Z,69.35
2018-12-22T02:50:58.946Z,69.65
2018-12-22T02:51:58.931Z,69.65
2018-12-22T02:52:58.967Z,69.65
2018-12-22T02:53:58.915Z,69.45
2018-12-22T02:54:58.917Z,69.04
2018-12-22T02:55:58.900Z,69.15
2018-12-22T02:56:58.880Z,69.24
2018-12-22T02:57:58.871Z,69.45
2018-12-22T02:59:05.770Z,69.04
2018-12-22T02:59:59.863Z,69.04
2018-12-22T03:00:58.841Z,69.15
2018-12-22T03:01:58.822Z,69.04
2018-12-22T03:02:58.820Z,69.86
2018-12-22T03:03:58.824Z,68.84
2018-12-22T03:04:58.834Z,68.43
2018-12-22T03:05:58.781Z,69.04
2018-12-22T03:06:58.799Z,68.84
2018-12-22T03:07:59.484Z,69.04
2018-12-22T03:08:58.770Z,68.74
2018-12-22T03:09:58.787Z,68.53
2018-12-22T03:10:58.720Z,69.15
2018-12-22T03:11:58.710Z,68.43
2018-12-22T03:12:58.708Z,68.43
2018-12-22T03:13:58.687Z,69.24
2018-12-22T03:14:58.692Z,68.74
2018-12-22T03:15:58.667Z,68.94
2018-12-22T03:16:58.654Z,68.94
2018-12-22T03:17:58.636Z,69.04
2018-12-22T03:18:58.628Z,68.63
2018-12-22T03:19:58.644Z,68.63
2018-12-22T03:20:58.616Z,69.15
2018-12-22T03:21:58.620Z,69.04
2018-12-22T03:22:58.687Z,69.04
2018-12-22T03:23:58.580Z,69.45
2018-12-22T03:24:58.580Z,69.45
2018-12-22T03:25:58.565Z,68.33
2018-12-22T03:26:58.552Z,68.84
2018-12-22T03:27:58.553Z,69.04
2018-12-22T03:28:58.525Z,68.94
2018-12-22T03:29:58.524Z,68.84
2018-12-22T03:30:58.496Z,68.84
2018-12-22T03:31:58.482Z,69.24
2018-12-22T03:32:58.478Z,69.76
2018-12-22T03:33:58.456Z,69.76
2018-12-22T03:34:58.490Z,69.76
2018-12-22T03:35:58.437Z,69.56
2018-12-22T03:36:58.421Z,69.45
2018-12-22T03:37:58.511Z,69.76
2018-12-22T03:38:58.401Z,69.56
2018-12-22T03:39:58.412Z,69.65
2018-12-22T03:40:58.377Z,70.06
2018-12-22T03:41:58.379Z,69.65
2018-12-22T03:42:58.355Z,69.35
2018-12-22T03:43:58.366Z,69.35
2018-12-22T03:44:58.375Z,70.17
2018-12-22T03:45:58.321Z,69.56
2018-12-22T03:46:58.325Z,69.56
2018-12-22T03:47:58.297Z,69.42
2018-12-22T03:48:58.303Z,69.96
2018-12-22T03:49:58.303Z,69.96
2018-12-22T03:50:58.293Z,70.06
2018-12-22T03:51:58.269Z,70.47
2018-12-22T03:52:58.243Z,70.57
2018-12-22T03:53:58.231Z,70.98
2018-12-22T03:54:58.243Z,71.29
2018-12-22T03:55:58.220Z,71.50
2018-12-22T03:56:58.239Z,71.50
2018-12-22T03:57:58.189Z,71.59
2018-12-22T03:58:58.171Z,71.50
2018-12-22T03:59:58.380Z,71.91
2018-12-22T04:00:58.164Z,71.80
2018-12-22T04:01:58.141Z,71.91
2018-12-22T04:02:58.153Z,72.38
2018-12-22T04:03:58.114Z,74.15
2018-12-22T04:04:58.104Z,74.46
2018-12-22T04:05:58.147Z,75.68
2018-12-22T04:06:58.083Z,76.03
2018-12-22T04:07:58.081Z,76.94
2018-12-22T04:08:58.061Z,76.64
2018-12-22T04:09:58.046Z,76.94
2018-12-22T04:10:58.072Z,77.49
2018-12-22T04:11:58.023Z,78.20
2018-12-22T04:12:58.022Z,78.92
2018-12-22T04:13:58.016Z,79.33
2018-12-22T04:14:57.998Z,78.68
2018-12-22T04:15:58.003Z,79.02
2018-12-22T04:16:57.992Z,79.29
2018-12-22T04:17:57.964Z,79.64
2018-12-22T04:18:57.975Z,80.15
2018-12-22T04:19:57.934Z,80.25
2018-12-22T04:20:57.944Z,80.49
2018-12-22T04:21:57.910Z,80.90
2018-12-22T04:22:57.899Z,81.82
2018-12-22T04:23:57.891Z,81.82
2018-12-22T04:24:57.880Z,81.72
2018-12-22T04:25:57.886Z,81.51
2018-12-22T04:26:57.855Z,81.10
2018-12-22T04:27:57.845Z,80.60
2018-12-22T04:28:57.855Z,81.41
2018-12-22T04:29:57.827Z,81.72
2018-12-22T04:30:57.827Z,80.80
2018-12-22T04:31:57.796Z,80.69
2018-12-22T04:32:57.785Z,80.80
2018-12-22T04:33:57.775Z,80.22
2018-12-22T04:34:57.785Z,80.90
2018-12-22T04:35:57.776Z,80.63
2018-12-22T04:36:57.770Z,80.94
2018-12-22T04:37:57.730Z,81.04
2018-12-22T04:38:57.740Z,81.35
2018-12-22T04:39:57.717Z,81.04
2018-12-22T04:40:57.728Z,79.71
2018-12-22T04:41:57.689Z,79.75
2018-12-22T04:42:57.686Z,81.04
2018-12-22T04:43:57.674Z,81.18
2018-12-22T04:44:57.680Z,81.08
2018-12-22T04:45:57.661Z,81.18
2018-12-22T04:46:57.628Z,81.18
2018-12-22T04:47:57.637Z,81.59
2018-12-22T04:48:57.630Z,81.49
2018-12-22T04:49:57.603Z,81.08
2018-12-22T04:50:57.653Z,81.29
2018-12-22T04:51:57.571Z,81.59
2018-12-22T04:52:57.558Z,82.71
2018-12-22T04:53:57.548Z,82.62
2018-12-22T04:54:57.698Z,82.62
2018-12-22T04:55:57.559Z,83.23
2018-12-22T04:56:57.518Z,83.54
2018-12-22T04:57:57.527Z,83.68
2018-12-22T04:58:57.515Z,83.13
2018-12-22T04:59:57.490Z,83.47
2018-12-22T05:00:57.507Z,83.27
2018-12-22T05:01:57.470Z,83.68
2018-12-22T05:02:57.483Z,84.29
2018-12-22T05:03:57.444Z,84.09
2018-12-22T05:04:57.424Z,84.19
2018-12-22T05:05:57.432Z,84.50
2018-12-22T05:06:57.403Z,83.58
2018-12-22T05:07:57.390Z,83.98
2018-12-22T05:08:57.412Z,85.11
2018-12-22T05:09:57.414Z,85.11
2018-12-22T05:10:57.379Z,85.01
2018-12-22T05:11:57.361Z,85.22
2018-12-22T05:12:57.334Z,85.28
2018-12-22T05:13:57.357Z,84.29
2018-12-22T05:14:57.311Z,84.87
2018-12-22T05:15:57.351Z,84.87
2018-12-22T05:16:57.290Z,84.80
2018-12-22T05:17:57.289Z,84.36
2018-12-22T05:18:57.280Z,84.46
2018-12-22T05:19:57.256Z,84.05
2018-12-22T05:20:57.263Z,83.95
2018-12-22T05:21:57.242Z,83.95
2018-12-22T05:22:57.222Z,84.46
2018-12-22T05:23:57.218Z,84.31
2018-12-22T05:24:57.205Z,84.36
2018-12-22T05:25:57.210Z,84.36
2018-12-22T05:26:57.186Z,83.60
2018-12-22T05:27:57.166Z,83.84
2018-12-22T05:28:57.163Z,83.44
2018-12-22T05:29:57.168Z,83.84
2018-12-22T05:30:57.218Z,83.23
2018-12-22T05:31:57.123Z,83.29
2018-12-22T05:32:57.201Z,83.39
2018-12-22T05:33:57.098Z,82.54
2018-12-22T05:34:57.097Z,81.62
2018-12-22T05:35:57.119Z,80.25
2018-12-22T05:36:57.084Z,78.78
2018-12-22T05:37:57.055Z,79.80
2018-12-22T05:38:57.041Z,78.17
2018-12-22T05:39:57.029Z,77.72
2018-12-22T05:40:57.050Z,76.67
2018-12-22T05:41:57.016Z,76.46
2018-12-22T05:42:57.010Z,76.40
2018-12-22T05:43:57.004Z,77.93
2018-12-22T05:44:56.973Z,78.03
2018-12-22T05:45:56.982Z,77.97
2018-12-22T05:46:56.955Z,77.86
2018-12-22T05:47:56.957Z,78.20
2018-12-22T05:48:56.927Z,78.61
2018-12-22T05:49:56.942Z,79.33
2018-12-22T05:50:56.922Z,78.65
2018-12-22T05:51:56.892Z,79.37
2018-12-22T05:52:56.898Z,79.16
2018-12-22T05:53:56.875Z,79.43
2018-12-22T05:54:56.865Z,78.86
2018-12-22T05:55:56.850Z,79.57
2018-12-22T05:56:56.884Z,79.47
2018-12-22T05:57:56.843Z,78.86
2018-12-22T05:58:56.816Z,78.86
2018-12-22T06:00:00.681Z,78.96
2018-12-22T06:00:56.791Z,79.27
2018-12-22T06:01:56.811Z,79.16
2018-12-22T06:02:56.776Z,79.88
2018-12-22T06:03:56.762Z,79.16
2018-12-22T06:04:56.751Z,79.37
2018-12-22T06:05:56.756Z,79.27
2018-12-22T06:06:56.742Z,79.27
2018-12-22T06:07:56.720Z,79.16
2018-12-22T06:08:57.278Z,79.37
2018-12-22T06:09:56.697Z,79.27
2018-12-22T06:10:56.688Z,78.86
2018-12-22T06:11:56.694Z,78.34
2018-12-22T06:12:56.654Z,78.65
2018-12-22T06:13:56.649Z,78.86
2018-12-22T06:14:56.644Z,78.96
2018-12-22T06:15:56.640Z,78.45
2018-12-22T06:16:56.634Z,77.94
2018-12-22T06:17:56.599Z,78.45
2018-12-22T06:18:56.586Z,78.65
2018-12-22T06:19:56.593Z,78.41
2018-12-22T06:20:56.592Z,78.24
2018-12-22T06:21:56.616Z,78.45
2018-12-22T06:22:56.596Z,78.45
2018-12-22T06:23:56.530Z,78.41
2018-12-22T06:24:56.518Z,78.04
2018-12-22T06:25:56.507Z,78.52
2018-12-22T06:26:56.524Z,78.00
2018-12-22T06:27:56.492Z,78.00
2018-12-22T06:28:56.481Z,78.00
2018-12-22T06:29:56.462Z,78.00
2018-12-22T06:30:56.451Z,77.86
2018-12-22T06:31:56.458Z,77.70
2018-12-22T06:32:56.429Z,77.80
2018-12-22T06:33:56.421Z,78.72
2018-12-22T06:34:56.415Z,78.82
2018-12-22T06:35:56.395Z,78.31
2018-12-22T06:36:56.472Z,79.43
2018-12-22T06:37:56.370Z,79.64
2018-12-22T06:38:56.363Z,79.13
2018-12-22T06:39:56.347Z,79.13
2018-12-22T06:40:56.337Z,79.94
2018-12-22T06:41:56.346Z,79.23
2018-12-22T06:42:56.317Z,79.94
2018-12-22T06:43:56.303Z,80.29
2018-12-22T06:44:56.292Z,79.74
2018-12-22T06:45:56.282Z,79.98
2018-12-22T06:46:56.291Z,80.60
2018-12-22T06:47:56.272Z,80.19
2018-12-22T06:48:56.246Z,80.69
2018-12-22T06:49:56.264Z,80.90
2018-12-22T06:50:56.240Z,81.21
2018-12-22T06:51:56.252Z,80.19
2018-12-22T06:52:56.201Z,80.39
2018-12-22T06:53:56.195Z,80.19
2018-12-22T06:54:56.179Z,80.39
2018-12-22T06:55:56.197Z,80.25
2018-12-22T06:56:56.211Z,79.94
2018-12-22T06:57:56.156Z,79.57
2018-12-22T06:58:56.134Z,79.02
2018-12-22T06:59:56.121Z,79.57
2018-12-22T07:00:56.117Z,79.43
2018-12-22T07:01:56.137Z,78.86
2018-12-22T07:02:56.087Z,79.23
2018-12-22T07:03:56.078Z,79.16
2018-12-22T07:04:56.069Z,79.06
2018-12-22T07:05:56.053Z,78.65
2018-12-22T07:06:56.063Z,78.45
2018-12-22T07:07:56.033Z,78.34
2018-12-22T07:08:56.020Z,78.34
2018-12-22T07:09:56.007Z,78.34
2018-12-22T07:10:55.997Z,78.55
2018-12-22T07:11:56.004Z,79.37
2018-12-22T07:12:55.973Z,79.06
2018-12-22T07:13:55.967Z,78.65
2018-12-22T07:14:55.956Z,78.49
2018-12-22T07:15:55.943Z,78.24
2018-12-22T07:16:55.949Z,78.45
2018-12-22T07:17:56.075Z,77.94
2018-12-22T07:18:55.907Z,77.73
2018-12-22T07:19:55.896Z,77.63
2018-12-22T07:20:55.892Z,77.63
2018-12-22T07:21:55.893Z,77.42
2018-12-22T07:22:55.864Z,78.04
2018-12-22T07:23:55.851Z,77.83
2018-12-22T07:24:55.837Z,77.12
2018-12-22T07:25:55.830Z,77.22
2018-12-22T07:26:55.839Z,76.64
2018-12-22T07:27:55.813Z,76.84
2018-12-22T07:28:55.794Z,77.12
2018-12-22T07:29:55.782Z,77.63
2018-12-22T07:30:55.772Z,76.54
2018-12-22T07:31:55.778Z,77.32
2018-12-22T07:32:57.062Z,76.30
2018-12-22T07:33:55.746Z,76.61
2018-12-22T07:34:55.728Z,77.01
2018-12-22T07:35:55.722Z,77.12
2018-12-22T07:36:55.725Z,76.91
2018-12-22T07:37:55.695Z,77.46
2018-12-22T07:38:55.685Z,76.84
2018-12-22T07:39:55.674Z,77.36
2018-12-22T07:40:55.663Z,77.94
2018-12-22T07:41:55.668Z,77.05
2018-12-22T07:42:55.642Z,76.84
2018-12-22T07:43:55.629Z,76.75
2018-12-22T07:44:55.622Z,77.26
2018-12-22T07:45:55.608Z,77.67
2018-12-22T07:46:55.661Z,77.09
2018-12-22T07:47:55.586Z,77.87
2018-12-22T07:48:56.800Z,77.36
2018-12-22T07:49:55.565Z,78.21
2018-12-22T07:50:55.553Z,77.56
2018-12-22T07:51:55.576Z,77.29
2018-12-22T07:52:55.532Z,77.67
2018-12-22T07:53:55.519Z,77.70
2018-12-22T07:54:55.517Z,77.76
2018-12-22T07:55:55.496Z,77.67
2018-12-22T07:56:55.485Z,77.56
2018-12-22T07:57:55.493Z,78.69
2018-12-22T07:58:55.471Z,78.08
2018-12-22T07:59:55.512Z,77.87
2018-12-22T08:00:55.440Z,78.08
2018-12-22T08:01:55.433Z,77.56
2018-12-22T08:02:55.458Z,77.87
2018-12-22T08:03:55.409Z,77.87
2018-12-22T08:04:55.397Z,77.97
2018-12-22T08:05:55.402Z,77.87
2018-12-22T08:06:55.380Z,77.87
2018-12-22T08:07:55.385Z,77.76
2018-12-22T08:08:55.351Z,77.67
2018-12-22T08:09:55.338Z,77.87
2018-12-22T08:10:55.331Z,77.97
2018-12-22T08:11:55.328Z,77.97
2018-12-22T08:12:55.332Z,77.67
2018-12-22T08:13:55.301Z,78.08
2018-12-22T08:14:55.290Z,76.61
2018-12-22T08:15:55.273Z,76.75
2018-12-22T08:16:55.262Z,76.30
2018-12-22T08:17:55.273Z,76.75
2018-12-22T08:18:55.247Z,77.15
2018-12-22T08:19:55.236Z,76.40
2018-12-22T08:20:55.227Z,76.30
2018-12-22T08:21:55.210Z,76.23
2018-12-22T08:22:55.215Z,76.95
2018-12-22T08:23:55.187Z,76.84
2018-12-22T08:24:55.181Z,76.34
2018-12-22T08:25:55.164Z,76.84
2018-12-22T08:26:55.159Z,77.05
2018-12-22T08:27:55.158Z,76.75
2018-12-22T08:28:55.128Z,77.05
2018-12-22T08:29:55.120Z,77.05
2018-12-22T08:30:55.218Z,77.26
2018-12-22T08:31:55.161Z,76.64
2018-12-22T08:32:55.100Z,77.15
2018-12-22T08:33:55.076Z,76.54
2018-12-22T08:34:55.062Z,76.34
2018-12-22T08:35:55.065Z,76.03
2018-12-22T08:36:55.038Z,76.43
2018-12-22T08:37:55.045Z,76.20
2018-12-22T08:38:55.034Z,76.20
2018-12-22T08:39:56.087Z,76.23
2018-12-22T08:40:54.995Z,75.99
2018-12-22T08:41:54.991Z,76.23
2018-12-22T08:42:54.999Z,76.13
2018-12-22T08:43:54.965Z,75.79
2018-12-22T08:44:54.952Z,75.48
2018-12-22T08:45:54.943Z,75.93
2018-12-22T08:46:54.933Z,75.27
2018-12-22T08:47:54.937Z,74.90
2018-12-22T08:48:54.909Z,75.07
2018-12-22T08:49:54.955Z,75.17
2018-12-22T08:50:54.884Z,74.35
2018-12-22T08:51:54.982Z,74.56
2018-12-22T08:52:54.885Z,73.64
2018-12-22T08:53:54.853Z,74.46
2018-12-22T08:54:54.842Z,74.26
2018-12-22T08:55:54.870Z,73.54
2018-12-22T08:56:54.847Z,73.64
2018-12-22T08:57:54.840Z,74.35
2018-12-22T08:58:54.795Z,74.15
2018-12-22T08:59:54.795Z,74.35
2018-12-22T09:00:54.779Z,74.76
2018-12-22T09:01:54.767Z,73.74
2018-12-22T09:02:54.803Z,74.56
2018-12-22T09:03:54.757Z,73.64
2018-12-22T09:04:54.730Z,74.46
2018-12-22T09:05:54.823Z,73.85
2018-12-22T09:06:54.711Z,73.54
2018-12-22T09:07:54.712Z,73.85
2018-12-22T09:08:54.683Z,73.85
2018-12-22T09:09:54.695Z,74.15
2018-12-22T09:10:54.661Z,74.46
2018-12-22T09:11:54.660Z,73.54
2018-12-22T09:12:54.691Z,74.26
2018-12-22T09:13:54.629Z,73.54
2018-12-22T09:14:54.616Z,74.15
2018-12-22T09:15:54.604Z,74.22
2018-12-22T09:16:54.595Z,73.71
2018-12-22T09:17:54.602Z,74.52
2018-12-22T09:18:54.576Z,72.89
2018-12-22T09:19:54.557Z,73.10
2018-12-22T09:20:54.547Z,72.79
2018-12-22T09:21:54.536Z,73.10
2018-12-22T09:22:54.541Z,73.40
2018-12-22T09:23:54.520Z,73.91
2018-12-22T09:24:54.503Z,73.50
2018-12-22T09:25:54.493Z,74.02
2018-12-22T09:26:54.480Z,74.02
2018-12-22T09:27:54.487Z,74.15
2018-12-22T09:28:54.456Z,74.26
2018-12-22T09:29:54.453Z,74.32
2018-12-22T09:31:00.719Z,74.35
2018-12-22T09:31:55.420Z,73.44
2018-12-22T09:32:54.431Z,74.26
2018-12-22T09:33:54.413Z,73.64
2018-12-22T09:34:54.394Z,73.74
2018-12-22T09:35:54.377Z,74.15
2018-12-22T09:36:54.367Z,74.26
2018-12-22T09:37:54.391Z,73.85
2018-12-22T09:38:54.342Z,73.44
2018-12-22T09:39:54.331Z,73.23
2018-12-22T09:40:54.328Z,73.94
2018-12-22T09:41:54.308Z,73.64
2018-12-22T09:42:54.315Z,74.35
2018-12-22T09:43:54.289Z,74.46
2018-12-22T09:44:54.282Z,74.35
2018-12-22T09:45:54.271Z,74.35
2018-12-22T09:46:54.251Z,73.23
2018-12-22T09:47:54.268Z,73.64
2018-12-22T09:48:54.229Z,74.46
2018-12-22T09:49:54.418Z,73.64
2018-12-22T09:50:54.210Z,74.02
2018-12-22T09:51:54.194Z,72.79
2018-12-22T09:52:54.186Z,73.40
2018-12-22T09:53:54.194Z,73.27
2018-12-22T09:54:54.163Z,73.36
2018-12-22T09:55:54.149Z,73.36
2018-12-22T09:56:54.144Z,74.18
2018-12-22T09:57:54.128Z,73.06
2018-12-22T09:58:54.137Z,73.44
2018-12-22T09:59:54.105Z,72.72
2018-12-22T10:00:54.094Z,72.75
2018-12-22T10:01:54.082Z,72.52
2018-12-22T10:02:54.075Z,72.00
2018-12-22T10:03:54.090Z,71.91
2018-12-22T10:04:54.065Z,71.91
2018-12-22T10:05:54.038Z,72.21
2018-12-22T10:06:54.025Z,71.56
2018-12-22T10:07:54.017Z,71.77
2018-12-22T10:08:54.024Z,72.28
2018-12-22T10:09:53.995Z,71.77
2018-12-22T10:10:53.982Z,71.67
2018-12-22T10:11:53.969Z,71.36
2018-12-22T10:12:53.958Z,71.56
2018-12-22T10:13:53.963Z,71.56
2018-12-22T10:14:53.938Z,71.77
2018-12-22T10:15:53.957Z,71.87
2018-12-22T10:16:53.913Z,71.80
2018-12-22T10:17:53.902Z,71.87
2018-12-22T10:18:53.909Z,71.97
2018-12-22T10:19:53.878Z,72.11
2018-12-22T10:20:53.872Z,72.21
2018-12-22T10:21:53.864Z,72.07
2018-12-22T10:22:53.848Z,71.46
2018-12-22T10:23:53.851Z,72.00
2018-12-22T10:24:53.824Z,71.80
2018-12-22T10:25:53.813Z,72.52
2018-12-22T10:26:53.805Z,72.72
2018-12-22T10:27:53.793Z,72.89
2018-12-22T10:28:53.820Z,72.58
2018-12-22T10:29:53.766Z,72.69
2018-12-22T10:30:53.767Z,72.48
2018-12-22T10:31:53.760Z,72.38
2018-12-22T10:32:53.751Z,72.69
2018-12-22T10:33:53.757Z,72.62
2018-12-22T10:34:53.721Z,72.72
2018-12-22T10:35:53.704Z,73.33
2018-12-22T10:36:53.731Z,73.54
2018-12-22T10:37:53.713Z,74.05
2018-12-22T10:38:53.683Z,73.94
2018-12-22T10:39:53.688Z,74.39
2018-12-22T10:40:53.642Z,74.69
2018-12-22T10:41:55.547Z,74.35
2018-12-22T10:42:53.625Z,74.66
2018-12-22T10:43:53.631Z,74.15
2018-12-22T10:44:53.658Z,74.59
2018-12-22T10:45:53.688Z,74.39
2018-12-22T10:46:53.594Z,74.39
2018-12-22T10:47:53.565Z,74.69
2018-12-22T10:48:53.572Z,73.98
2018-12-22T10:49:53.569Z,73.68
2018-12-22T10:50:53.533Z,74.29
2018-12-22T10:51:53.523Z,75.04
2018-12-22T10:52:53.513Z,76.16
2018-12-22T10:53:53.516Z,76.26
2018-12-22T10:54:53.488Z,77.19
2018-12-22T10:55:53.477Z,77.19
2018-12-22T10:56:53.464Z,78.00
2018-12-22T10:57:53.457Z,76.98
2018-12-22T10:58:53.458Z,77.19
2018-12-22T10:59:53.437Z,78.11
2018-12-22T11:00:53.418Z,76.88
2018-12-22T11:01:53.412Z,77.80
2018-12-22T11:02:53.401Z,78.00
2018-12-22T11:03:53.403Z,77.70
2018-12-22T11:04:53.375Z,77.12
2018-12-22T11:05:53.362Z,77.83
2018-12-22T11:06:53.350Z,78.00
2018-12-22T11:07:53.347Z,77.83
2018-12-22T11:08:53.347Z,77.19
2018-12-22T11:09:53.318Z,77.19
2018-12-22T11:10:53.305Z,76.20
2018-12-22T11:11:53.292Z,76.30
2018-12-22T11:12:53.282Z,76.30
2018-12-22T11:13:53.291Z,76.26
2018-12-22T11:14:53.260Z,75.85
2018-12-22T11:15:53.249Z,76.03
2018-12-22T11:16:53.235Z,75.51
2018-12-22T11:17:53.223Z,75.62
2018-12-22T11:18:53.233Z,75.04
2018-12-22T11:19:53.202Z,75.65
2018-12-22T11:20:53.190Z,76.06
2018-12-22T11:21:53.196Z,75.96
2018-12-22T11:22:53.178Z,75.65
2018-12-22T11:23:53.208Z,76.12
2018-12-22T11:24:53.145Z,75.51
2018-12-22T11:25:53.135Z,74.90
2018-12-22T11:26:53.146Z,74.35
2018-12-22T11:27:53.114Z,73.54
2018-12-22T11:28:53.123Z,74.15
2018-12-22T11:29:53.088Z,74.49
2018-12-22T11:30:53.082Z,75.21
2018-12-22T11:31:53.067Z,74.80
2018-12-22T11:32:53.055Z,74.90
2018-12-22T11:33:53.061Z,75.41
2018-12-22T11:34:53.034Z,75.00
2018-12-22T11:35:53.021Z,75.00
2018-12-22T11:36:53.012Z,74.25
2018-12-22T11:37:52.996Z,74.35
2018-12-22T11:38:53.004Z,73.13
2018-12-22T11:39:52.976Z,73.84
2018-12-22T11:40:52.970Z,73.13
2018-12-22T11:41:52.955Z,73.23
2018-12-22T11:42:52.941Z,74.05
2018-12-22T11:43:52.929Z,73.36
2018-12-22T11:44:52.935Z,73.36
2018-12-22T11:45:52.905Z,72.96
2018-12-22T11:46:52.896Z,72.82
2018-12-22T11:47:52.893Z,72.55
2018-12-22T11:48:52.875Z,72.82
2018-12-22T11:49:52.886Z,72.45
2018-12-22T11:50:52.853Z,72.55
2018-12-22T11:51:52.839Z,72.62
2018-12-22T11:52:52.835Z,72.72
2018-12-22T11:53:52.815Z,72.52
2018-12-22T11:54:52.840Z,72.92
2018-12-22T11:55:52.794Z,72.41
2018-12-22T11:56:52.784Z,72.62
2018-12-22T11:57:52.772Z,72.72
2018-12-22T11:58:52.765Z,73.33
2018-12-22T11:59:52.774Z,72.75
2018-12-22T12:00:52.739Z,72.96
2018-12-22T12:01:52.724Z,72.92
2018-12-22T12:02:52.722Z,72.41
2018-12-22T12:03:52.707Z,72.82
2018-12-22T12:04:52.707Z,72.72
2018-12-22T12:05:52.709Z,72.52
2018-12-22T12:06:52.674Z,73.03
2018-12-22T12:07:52.655Z,73.33
2018-12-22T12:08:52.649Z,73.33
2018-12-22T12:09:52.656Z,73.13
2018-12-22T12:10:52.623Z,73.13
2018-12-22T12:11:52.614Z,72.62
2018-12-22T12:12:52.600Z,72.72
2018-12-22T12:13:52.588Z,72.52
2018-12-22T12:14:52.597Z,73.06
2018-12-22T12:15:52.566Z,72.92
2018-12-22T12:16:52.562Z,72.72
2018-12-22T12:17:52.545Z,72.62
2018-12-22T12:18:52.535Z,72.62
2018-12-22T12:19:52.538Z,73.03
2018-12-22T12:20:52.512Z,72.52
2018-12-22T12:21:52.507Z,72.62
2018-12-22T12:22:52.488Z,72.52
2018-12-22T12:23:52.476Z,72.62
2018-12-22T12:24:52.496Z,72.92
2018-12-22T12:25:52.453Z,72.69
2018-12-22T12:26:52.446Z,71.91
2018-12-22T12:27:52.432Z,72.07
2018-12-22T12:28:52.422Z,72.11
2018-12-22T12:29:52.419Z,71.91
2018-12-22T12:30:52.417Z,71.59
2018-12-22T12:31:52.550Z,71.91
2018-12-22T12:32:52.377Z,72.69
2018-12-22T12:33:52.370Z,71.77
2018-12-22T12:34:52.356Z,71.87
2018-12-22T12:35:52.362Z,71.56
2018-12-22T12:36:52.330Z,71.56
2018-12-22T12:37:52.318Z,71.77
2018-12-22T12:38:52.306Z,71.56
2018-12-22T12:39:52.297Z,71.26
2018-12-22T12:40:52.303Z,71.26
2018-12-22T12:41:52.275Z,71.05
2018-12-22T12:42:52.261Z,70.85
2018-12-22T12:43:52.254Z,70.57
2018-12-22T12:44:52.249Z,71.26
2018-12-22T12:45:52.251Z,71.05
2018-12-22T12:46:52.217Z,71.19
2018-12-22T12:47:52.207Z,71.39
2018-12-22T12:48:52.200Z,71.70
2018-12-22T12:49:52.184Z,71.36
2018-12-22T12:50:52.200Z,70.95
2018-12-22T12:51:52.166Z,71.46